sensor_id;sensor_type;location;lat;lon;timestamp;P1;durP1;ratioP1;P2;durP2;ratioP2
51184;SDS011;37248;59.350;18.050;2022-07-22T00:00:54;4.13;;;3.73;;
51184;SDS011;37248;59.350;18.050;2022-07-22T00:03:20;3.57;;;3.27;;
51184;SDS011;37248;59.350;18.050;2022-07-22T00:05:45;5.03;;;3.80;;
51184;SDS011;37248;59.350;18.050;2022-07-22T00:08:10;4.23;;;3.30;;
51184;SDS011;37248;59.350;18.050;2022-07-22T00:10:36;3.50;;;3.20;;
51184;SDS011;37248;59.350;18.050;2022-07-22T00:13:01;4.67;;;3.80;;
51184;SDS011;37248;59.350;18.050;2022-07-22T00:15:26;4.33;;;3.70;;
51184;SDS011;37248;59.350;18.050;2022-07-22T00:17:51;3.47;;;3.17;;
51184;SDS011;37248;59.350;18.050;2022-07-22T00:20:17;3.77;;;3.37;;
51184;SDS011;37248;59.350;18.050;2022-07-22T00:22:44;4.33;;;3.40;;
51184;SDS011;37248;59.350;18.050;2022-07-22T00:25:09;3.97;;;3.50;;
51184;SDS011;37248;59.350;18.050;2022-07-22T00:27:34;3.70;;;3.37;;
51184;SDS011;37248;59.350;18.050;2022-07-22T00:30:00;3.70;;;3.33;;
51184;SDS011;37248;59.350;18.050;2022-07-22T00:32:25;4.93;;;3.50;;
51184;SDS011;37248;59.350;18.050;2022-07-22T00:34:50;3.40;;;3.10;;
51184;SDS011;37248;59.350;18.050;2022-07-22T00:37:15;6.20;;;3.77;;
51184;SDS011;37248;59.350;18.050;2022-07-22T00:39:41;4.20;;;3.80;;
51184;SDS011;37248;59.350;18.050;2022-07-22T00:42:06;3.30;;;3.00;;
51184;SDS011;37248;59.350;18.050;2022-07-22T00:44:31;5.17;;;3.53;;
51184;SDS011;37248;59.350;18.050;2022-07-22T00:46:56;3.50;;;3.20;;
51184;SDS011;37248;59.350;18.050;2022-07-22T00:49:22;3.70;;;3.27;;
51184;SDS011;37248;59.350;18.050;2022-07-22T00:51:47;4.10;;;3.70;;
51184;SDS011;37248;59.350;18.050;2022-07-22T00:54:13;3.73;;;3.43;;
51184;SDS011;37248;59.350;18.050;2022-07-22T00:56:38;5.63;;;3.63;;
51184;SDS011;37248;59.350;18.050;2022-07-22T00:59:06;4.95;;;3.60;;
51184;SDS011;37248;59.350;18.050;2022-07-22T01:01:32;4.28;;;3.28;;
51184;SDS011;37248;59.350;18.050;2022-07-22T01:03:57;4.00;;;3.20;;
51184;SDS011;37248;59.350;18.050;2022-07-22T01:06:22;3.87;;;3.47;;
51184;SDS011;37248;59.350;18.050;2022-07-22T01:08:48;3.67;;;3.17;;
51184;SDS011;37248;59.350;18.050;2022-07-22T01:11:14;3.93;;;3.53;;
51184;SDS011;37248;59.350;18.050;2022-07-22T01:13:41;4.40;;;3.53;;
51184;SDS011;37248;59.350;18.050;2022-07-22T01:16:07;4.97;;;3.60;;
51184;SDS011;37248;59.350;18.050;2022-07-22T01:18:33;4.27;;;3.50;;
51184;SDS011;37248;59.350;18.050;2022-07-22T01:20:59;3.87;;;3.57;;
51184;SDS011;37248;59.350;18.050;2022-07-22T01:23:24;4.10;;;3.40;;
51184;SDS011;37248;59.350;18.050;2022-07-22T01:25:49;11.53;;;4.67;;
51184;SDS011;37248;59.350;18.050;2022-07-22T01:28:15;4.03;;;3.50;;
51184;SDS011;37248;59.350;18.050;2022-07-22T01:30:40;4.17;;;3.50;;
51184;SDS011;37248;59.350;18.050;2022-07-22T01:33:05;4.40;;;3.67;;
51184;SDS011;37248;59.350;18.050;2022-07-22T01:35:30;4.27;;;3.60;;
51184;SDS011;37248;59.350;18.050;2022-07-22T01:37:56;3.97;;;3.57;;
51184;SDS011;37248;59.350;18.050;2022-07-22T01:40:21;4.93;;;3.20;;
51184;SDS011;37248;59.350;18.050;2022-07-22T01:42:46;4.10;;;3.60;;
51184;SDS011;37248;59.350;18.050;2022-07-22T01:45:12;4.00;;;3.33;;
51184;SDS011;37248;59.350;18.050;2022-07-22T01:47:37;4.80;;;3.53;;
51184;SDS011;37248;59.350;18.050;2022-07-22T01:50:03;3.73;;;3.40;;
51184;SDS011;37248;59.350;18.050;2022-07-22T01:52:29;3.70;;;3.40;;
51184;SDS011;37248;59.350;18.050;2022-07-22T01:54:54;4.03;;;3.63;;
51184;SDS011;37248;59.350;18.050;2022-07-22T01:57:19;4.43;;;3.30;;
51184;SDS011;37248;59.350;18.050;2022-07-22T01:59:45;3.83;;;3.53;;
51184;SDS011;37248;59.350;18.050;2022-07-22T02:02:10;4.17;;;3.40;;
51184;SDS011;37248;59.350;18.050;2022-07-22T02:04:35;3.97;;;3.20;;
51184;SDS011;37248;59.350;18.050;2022-07-22T02:07:00;3.90;;;3.50;;
51184;SDS011;37248;59.350;18.050;2022-07-22T02:09:25;3.70;;;3.40;;
51184;SDS011;37248;59.350;18.050;2022-07-22T02:11:51;4.33;;;3.50;;
51184;SDS011;37248;59.350;18.050;2022-07-22T02:14:16;3.70;;;3.20;;
51184;SDS011;37248;59.350;18.050;2022-07-22T02:16:41;3.50;;;3.20;;
51184;SDS011;37248;59.350;18.050;2022-07-22T02:19:07;4.30;;;3.50;;
51184;SDS011;37248;59.350;18.050;2022-07-22T02:21:33;3.80;;;3.50;;
51184;SDS011;37248;59.350;18.050;2022-07-22T02:23:58;3.50;;;3.20;;
51184;SDS011;37248;59.350;18.050;2022-07-22T02:26:23;3.77;;;3.37;;
51184;SDS011;37248;59.350;18.050;2022-07-22T02:28:48;4.33;;;3.60;;
51184;SDS011;37248;59.350;18.050;2022-07-22T02:31:14;3.90;;;3.50;;
51184;SDS011;37248;59.350;18.050;2022-07-22T02:33:39;4.00;;;3.50;;
51184;SDS011;37248;59.350;18.050;2022-07-22T02:36:04;4.00;;;3.43;;
51184;SDS011;37248;59.350;18.050;2022-07-22T02:38:30;4.90;;;3.45;;
51184;SDS011;37248;59.350;18.050;2022-07-22T02:40:55;3.57;;;3.27;;
51184;SDS011;37248;59.350;18.050;2022-07-22T02:43:20;4.60;;;3.35;;
51184;SDS011;37248;59.350;18.050;2022-07-22T02:45:46;3.90;;;3.50;;
51184;SDS011;37248;59.350;18.050;2022-07-22T02:48:11;4.57;;;3.35;;
51184;SDS011;37248;59.350;18.050;2022-07-22T02:50:36;4.40;;;3.57;;
51184;SDS011;37248;59.350;18.050;2022-07-22T02:53:02;3.42;;;3.13;;
51184;SDS011;37248;59.350;18.050;2022-07-22T02:55:28;3.40;;;3.10;;
51184;SDS011;37248;59.350;18.050;2022-07-22T02:57:53;3.80;;;3.40;;
51184;SDS011;37248;59.350;18.050;2022-07-22T03:00:18;5.57;;;3.57;;
51184;SDS011;37248;59.350;18.050;2022-07-22T03:02:44;3.90;;;3.50;;
51184;SDS011;37248;59.350;18.050;2022-07-22T03:05:09;3.60;;;3.30;;
51184;SDS011;37248;59.350;18.050;2022-07-22T03:07:34;3.90;;;3.60;;
51184;SDS011;37248;59.350;18.050;2022-07-22T03:09:59;4.10;;;3.70;;
51184;SDS011;37248;59.350;18.050;2022-07-22T03:12:25;4.07;;;3.50;;
51184;SDS011;37248;59.350;18.050;2022-07-22T03:14:50;4.03;;;3.63;;
51184;SDS011;37248;59.350;18.050;2022-07-22T03:17:15;3.67;;;3.27;;
51184;SDS011;37248;59.350;18.050;2022-07-22T03:19:41;4.03;;;3.67;;
51184;SDS011;37248;59.350;18.050;2022-07-22T03:22:06;3.97;;;3.23;;
51184;SDS011;37248;59.350;18.050;2022-07-22T03:24:31;3.43;;;3.13;;
51184;SDS011;37248;59.350;18.050;2022-07-22T03:26:56;3.93;;;3.10;;
51184;SDS011;37248;59.350;18.050;2022-07-22T03:29:22;3.80;;;3.50;;
51184;SDS011;37248;59.350;18.050;2022-07-22T03:31:47;6.37;;;3.77;;
51184;SDS011;37248;59.350;18.050;2022-07-22T03:34:12;3.70;;;3.40;;
51184;SDS011;37248;59.350;18.050;2022-07-22T03:36:37;3.67;;;3.30;;
51184;SDS011;37248;59.350;18.050;2022-07-22T03:39:03;4.30;;;3.40;;
51184;SDS011;37248;59.350;18.050;2022-07-22T03:41:28;4.00;;;3.60;;
51184;SDS011;37248;59.350;18.050;2022-07-22T03:43:53;3.50;;;3.20;;
51184;SDS011;37248;59.350;18.050;2022-07-22T03:46:18;4.20;;;3.80;;
51184;SDS011;37248;59.350;18.050;2022-07-22T03:48:44;5.27;;;3.70;;
51184;SDS011;37248;59.350;18.050;2022-07-22T03:51:09;3.90;;;3.50;;
51184;SDS011;37248;59.350;18.050;2022-07-22T03:53:34;3.70;;;3.30;;
51184;SDS011;37248;59.350;18.050;2022-07-22T03:56:00;3.87;;;3.50;;
51184;SDS011;37248;59.350;18.050;2022-07-22T03:58:25;5.03;;;3.70;;
51184;SDS011;37248;59.350;18.050;2022-07-22T04:00:51;4.43;;;3.47;;
51184;SDS011;37248;59.350;18.050;2022-07-22T04:03:17;4.10;;;3.70;;
51184;SDS011;37248;59.350;18.050;2022-07-22T04:05:42;4.33;;;3.30;;
51184;SDS011;37248;59.350;18.050;2022-07-22T04:08:07;4.57;;;3.70;;
51184;SDS011;37248;59.350;18.050;2022-07-22T04:10:32;3.90;;;3.50;;
51184;SDS011;37248;59.350;18.050;2022-07-22T04:12:58;4.27;;;3.77;;
51184;SDS011;37248;59.350;18.050;2022-07-22T04:15:23;5.20;;;3.80;;
51184;SDS011;37248;59.350;18.050;2022-07-22T04:17:48;4.00;;;3.60;;
51184;SDS011;37248;59.350;18.050;2022-07-22T04:20:13;3.83;;;3.53;;
51184;SDS011;37248;59.350;18.050;2022-07-22T04:22:39;4.40;;;3.67;;
51184;SDS011;37248;59.350;18.050;2022-07-22T04:25:04;4.23;;;3.83;;
51184;SDS011;37248;59.350;18.050;2022-07-22T04:27:30;4.70;;;3.50;;
51184;SDS011;37248;59.350;18.050;2022-07-22T04:29:55;3.83;;;3.43;;
51184;SDS011;37248;59.350;18.050;2022-07-22T04:32:21;3.90;;;3.50;;
51184;SDS011;37248;59.350;18.050;2022-07-22T04:34:46;3.95;;;3.55;;
51184;SDS011;37248;59.350;18.050;2022-07-22T04:37:12;4.00;;;3.33;;
51184;SDS011;37248;59.350;18.050;2022-07-22T04:39:37;3.78;;;3.38;;
51184;SDS011;37248;59.350;18.050;2022-07-22T04:42:03;4.27;;;3.50;;
51184;SDS011;37248;59.350;18.050;2022-07-22T04:44:28;3.80;;;3.27;;
51184;SDS011;37248;59.350;18.050;2022-07-22T04:46:53;4.30;;;3.70;;
51184;SDS011;37248;59.350;18.050;2022-07-22T04:49:18;4.40;;;4.00;;
51184;SDS011;37248;59.350;18.050;2022-07-22T04:51:44;3.87;;;3.50;;
51184;SDS011;37248;59.350;18.050;2022-07-22T04:54:09;3.70;;;3.40;;
51184;SDS011;37248;59.350;18.050;2022-07-22T04:56:34;4.27;;;3.53;;
51184;SDS011;37248;59.350;18.050;2022-07-22T04:58:59;3.37;;;3.07;;
51184;SDS011;37248;59.350;18.050;2022-07-22T05:01:25;4.17;;;3.50;;
51184;SDS011;37248;59.350;18.050;2022-07-22T05:03:50;3.60;;;3.10;;
51184;SDS011;37248;59.350;18.050;2022-07-22T05:06:17;4.28;;;3.60;;
51184;SDS011;37248;59.350;18.050;2022-07-22T05:08:42;3.90;;;3.50;;
51184;SDS011;37248;59.350;18.050;2022-07-22T05:11:07;3.95;;;3.55;;
51184;SDS011;37248;59.350;18.050;2022-07-22T05:13:32;3.80;;;3.27;;
51184;SDS011;37248;59.350;18.050;2022-07-22T05:16:01;3.63;;;3.33;;
51184;SDS011;37248;59.350;18.050;2022-07-22T05:18:27;4.35;;;3.40;;
51184;SDS011;37248;59.350;18.050;2022-07-22T05:20:52;3.73;;;3.33;;
51184;SDS011;37248;59.350;18.050;2022-07-22T05:23:17;4.13;;;3.73;;
51184;SDS011;37248;59.350;18.050;2022-07-22T05:25:43;4.90;;;3.33;;
51184;SDS011;37248;59.350;18.050;2022-07-22T05:28:08;4.03;;;3.63;;
51184;SDS011;37248;59.350;18.050;2022-07-22T05:30:33;3.40;;;3.10;;
51184;SDS011;37248;59.350;18.050;2022-07-22T05:32:58;3.37;;;3.07;;
51184;SDS011;37248;59.350;18.050;2022-07-22T05:35:24;3.77;;;3.47;;
51184;SDS011;37248;59.350;18.050;2022-07-22T05:37:49;3.87;;;3.57;;
51184;SDS011;37248;59.350;18.050;2022-07-22T05:40:14;6.40;;;3.53;;
51184;SDS011;37248;59.350;18.050;2022-07-22T05:42:39;3.40;;;3.10;;
51184;SDS011;37248;59.350;18.050;2022-07-22T05:45:05;3.90;;;3.23;;
51184;SDS011;37248;59.350;18.050;2022-07-22T05:47:30;4.17;;;3.30;;
51184;SDS011;37248;59.350;18.050;2022-07-22T05:49:55;4.13;;;3.37;;
51184;SDS011;37248;59.350;18.050;2022-07-22T05:52:21;3.70;;;3.40;;
51184;SDS011;37248;59.350;18.050;2022-07-22T05:54:46;3.60;;;3.20;;
51184;SDS011;37248;59.350;18.050;2022-07-22T05:57:11;5.90;;;3.43;;
51184;SDS011;37248;59.350;18.050;2022-07-22T05:59:37;4.33;;;3.50;;
51184;SDS011;37248;59.350;18.050;2022-07-22T06:02:03;3.60;;;3.30;;
51184;SDS011;37248;59.350;18.050;2022-07-22T06:04:28;4.88;;;3.50;;
51184;SDS011;37248;59.350;18.050;2022-07-22T06:06:53;4.23;;;3.57;;
51184;SDS011;37248;59.350;18.050;2022-07-22T06:09:18;3.80;;;3.37;;
51184;SDS011;37248;59.350;18.050;2022-07-22T06:11:44;3.90;;;3.50;;
51184;SDS011;37248;59.350;18.050;2022-07-22T06:14:09;4.20;;;3.80;;
51184;SDS011;37248;59.350;18.050;2022-07-22T06:16:34;3.70;;;3.20;;
51184;SDS011;37248;59.350;18.050;2022-07-22T06:19:00;3.80;;;3.30;;
51184;SDS011;37248;59.350;18.050;2022-07-22T06:21:25;3.90;;;3.30;;
51184;SDS011;37248;59.350;18.050;2022-07-22T06:23:51;4.40;;;3.53;;
51184;SDS011;37248;59.350;18.050;2022-07-22T06:26:16;4.13;;;3.37;;
51184;SDS011;37248;59.350;18.050;2022-07-22T06:28:41;4.07;;;3.50;;
51184;SDS011;37248;59.350;18.050;2022-07-22T06:31:06;4.60;;;3.63;;
51184;SDS011;37248;59.350;18.050;2022-07-22T06:33:32;3.60;;;3.27;;
51184;SDS011;37248;59.350;18.050;2022-07-22T06:35:58;4.65;;;3.42;;
51184;SDS011;37248;59.350;18.050;2022-07-22T06:38:23;3.73;;;3.33;;
51184;SDS011;37248;59.350;18.050;2022-07-22T06:40:49;4.40;;;3.87;;
51184;SDS011;37248;59.350;18.050;2022-07-22T06:43:14;3.90;;;3.50;;
51184;SDS011;37248;59.350;18.050;2022-07-22T06:45:39;3.97;;;3.57;;
51184;SDS011;37248;59.350;18.050;2022-07-22T06:48:04;5.47;;;3.90;;
51184;SDS011;37248;59.350;18.050;2022-07-22T06:50:30;4.70;;;3.50;;
51184;SDS011;37248;59.350;18.050;2022-07-22T06:52:55;3.97;;;3.53;;
51184;SDS011;37248;59.350;18.050;2022-07-22T06:55:20;4.30;;;3.80;;
51184;SDS011;37248;59.350;18.050;2022-07-22T06:57:45;4.13;;;3.73;;
51184;SDS011;37248;59.350;18.050;2022-07-22T07:00:11;4.20;;;3.40;;
51184;SDS011;37248;59.350;18.050;2022-07-22T07:02:36;4.33;;;3.30;;
51184;SDS011;37248;59.350;18.050;2022-07-22T07:05:02;3.70;;;3.20;;
51184;SDS011;37248;59.350;18.050;2022-07-22T07:07:27;4.30;;;3.90;;
51184;SDS011;37248;59.350;18.050;2022-07-22T07:09:52;4.57;;;3.87;;
51184;SDS011;37248;59.350;18.050;2022-07-22T07:12:18;4.07;;;3.67;;
51184;SDS011;37248;59.350;18.050;2022-07-22T07:14:43;5.20;;;3.50;;
51184;SDS011;37248;59.350;18.050;2022-07-22T07:17:08;4.03;;;3.63;;
51184;SDS011;37248;59.350;18.050;2022-07-22T07:19:33;4.07;;;3.47;;
51184;SDS011;37248;59.350;18.050;2022-07-22T07:21:59;3.83;;;3.17;;
51184;SDS011;37248;59.350;18.050;2022-07-22T07:24:24;4.00;;;3.60;;
51184;SDS011;37248;59.350;18.050;2022-07-22T07:26:49;3.67;;;3.37;;
51184;SDS011;37248;59.350;18.050;2022-07-22T07:29:14;3.67;;;3.37;;
51184;SDS011;37248;59.350;18.050;2022-07-22T07:31:40;4.33;;;3.50;;
51184;SDS011;37248;59.350;18.050;2022-07-22T07:34:05;4.33;;;3.43;;
51184;SDS011;37248;59.350;18.050;2022-07-22T07:36:30;3.70;;;3.40;;
51184;SDS011;37248;59.350;18.050;2022-07-22T07:38:55;3.73;;;3.10;;
51184;SDS011;37248;59.350;18.050;2022-07-22T07:41:21;4.10;;;3.27;;
51184;SDS011;37248;59.350;18.050;2022-07-22T07:43:46;4.03;;;3.30;;
51184;SDS011;37248;59.350;18.050;2022-07-22T07:46:11;4.30;;;3.90;;
51184;SDS011;37248;59.350;18.050;2022-07-22T07:48:37;4.00;;;3.60;;
51184;SDS011;37248;59.350;18.050;2022-07-22T07:51:02;4.10;;;3.70;;
51184;SDS011;37248;59.350;18.050;2022-07-22T07:53:27;5.20;;;3.60;;
51184;SDS011;37248;59.350;18.050;2022-07-22T07:55:53;4.17;;;3.43;;
51184;SDS011;37248;59.350;18.050;2022-07-22T07:58:18;4.20;;;3.77;;
51184;SDS011;37248;59.350;18.050;2022-07-22T08:00:44;4.15;;;3.30;;
51184;SDS011;37248;59.350;18.050;2022-07-22T08:03:09;3.73;;;3.43;;
51184;SDS011;37248;59.350;18.050;2022-07-22T08:05:35;4.63;;;3.70;;
51184;SDS011;37248;59.350;18.050;2022-07-22T08:08:00;4.93;;;3.67;;
51184;SDS011;37248;59.350;18.050;2022-07-22T08:10:26;4.03;;;3.65;;
51184;SDS011;37248;59.350;18.050;2022-07-22T08:12:52;4.68;;;3.78;;
51184;SDS011;37248;59.350;18.050;2022-07-22T08:15:18;3.90;;;3.30;;
51184;SDS011;37248;59.350;18.050;2022-07-22T08:17:43;3.60;;;3.17;;
51184;SDS011;37248;59.350;18.050;2022-07-22T08:20:08;3.73;;;3.30;;
51184;SDS011;37248;59.350;18.050;2022-07-22T08:22:34;3.77;;;3.07;;
51184;SDS011;37248;59.350;18.050;2022-07-22T08:24:59;5.68;;;3.58;;
51184;SDS011;37248;59.350;18.050;2022-07-22T08:27:25;4.33;;;3.23;;
51184;SDS011;37248;59.350;18.050;2022-07-22T08:29:50;3.70;;;3.10;;
51184;SDS011;37248;59.350;18.050;2022-07-22T08:32:15;3.30;;;3.00;;
51184;SDS011;37248;59.350;18.050;2022-07-22T08:34:41;4.03;;;3.27;;
51184;SDS011;37248;59.350;18.050;2022-07-22T08:37:06;4.37;;;3.03;;
51184;SDS011;37248;59.350;18.050;2022-07-22T08:39:31;3.77;;;3.20;;
51184;SDS011;37248;59.350;18.050;2022-07-22T08:41:58;3.45;;;2.85;;
51184;SDS011;37248;59.350;18.050;2022-07-22T08:44:24;3.43;;;3.13;;
51184;SDS011;37248;59.350;18.050;2022-07-22T08:46:49;3.23;;;2.80;;
51184;SDS011;37248;59.350;18.050;2022-07-22T08:49:15;3.37;;;3.07;;
51184;SDS011;37248;59.350;18.050;2022-07-22T08:51:40;3.63;;;3.20;;
51184;SDS011;37248;59.350;18.050;2022-07-22T08:54:06;3.97;;;3.20;;
51184;SDS011;37248;59.350;18.050;2022-07-22T08:56:31;3.90;;;3.00;;
51184;SDS011;37248;59.350;18.050;2022-07-22T08:58:56;3.57;;;2.80;;
51184;SDS011;37248;59.350;18.050;2022-07-22T09:01:22;5.43;;;3.30;;
51184;SDS011;37248;59.350;18.050;2022-07-22T09:03:48;3.30;;;2.90;;
51184;SDS011;37248;59.350;18.050;2022-07-22T09:06:14;4.82;;;3.17;;
51184;SDS011;37248;59.350;18.050;2022-07-22T09:11:35;3.40;;;2.83;;
51184;SDS011;37248;59.350;18.050;2022-07-22T09:14:00;3.93;;;3.13;;
51184;SDS011;37248;59.350;18.050;2022-07-22T09:16:45;3.50;;;2.80;;
51184;SDS011;37248;59.350;18.050;2022-07-22T09:19:12;4.40;;;3.00;;
51184;SDS011;37248;59.350;18.050;2022-07-22T09:21:38;3.40;;;2.92;;
51184;SDS011;37248;59.350;18.050;2022-07-22T09:24:04;4.80;;;2.95;;
51184;SDS011;37248;59.350;18.050;2022-07-22T09:26:35;4.25;;;3.15;;
51184;SDS011;37248;59.350;18.050;2022-07-22T09:29:01;3.83;;;3.27;;
51184;SDS011;37248;59.350;18.050;2022-07-22T09:31:31;3.53;;;3.08;;
51184;SDS011;37248;59.350;18.050;2022-07-22T09:33:57;4.65;;;3.25;;
51184;SDS011;37248;59.350;18.050;2022-07-22T09:36:22;5.00;;;3.17;;
51184;SDS011;37248;59.350;18.050;2022-07-22T09:38:48;3.80;;;3.00;;
51184;SDS011;37248;59.350;18.050;2022-07-22T09:41:13;4.43;;;3.17;;
51184;SDS011;37248;59.350;18.050;2022-07-22T09:43:39;4.80;;;2.83;;
51184;SDS011;37248;59.350;18.050;2022-07-22T09:46:04;3.47;;;3.00;;
51184;SDS011;37248;59.350;18.050;2022-07-22T09:48:30;4.03;;;3.22;;
51184;SDS011;37248;59.350;18.050;2022-07-22T09:50:55;3.47;;;2.90;;
51184;SDS011;37248;59.350;18.050;2022-07-22T09:53:22;3.53;;;2.90;;
51184;SDS011;37248;59.350;18.050;2022-07-22T09:55:48;4.20;;;3.23;;
51184;SDS011;37248;59.350;18.050;2022-07-22T09:58:13;4.53;;;3.10;;
51184;SDS011;37248;59.350;18.050;2022-07-22T10:00:39;4.80;;;3.30;;
51184;SDS011;37248;59.350;18.050;2022-07-22T10:03:06;3.28;;;2.90;;
51184;SDS011;37248;59.350;18.050;2022-07-22T10:05:34;4.10;;;2.92;;
51184;SDS011;37248;59.350;18.050;2022-07-22T10:08:01;4.77;;;3.23;;
51184;SDS011;37248;59.350;18.050;2022-07-22T10:10:28;4.20;;;3.17;;
51184;SDS011;37248;59.350;18.050;2022-07-22T10:12:54;3.22;;;2.85;;
51184;SDS011;37248;59.350;18.050;2022-07-22T10:15:19;4.43;;;3.10;;
51184;SDS011;37248;59.350;18.050;2022-07-22T10:17:52;5.70;;;3.53;;
51184;SDS011;37248;59.350;18.050;2022-07-22T10:20:21;4.13;;;3.30;;
51184;SDS011;37248;59.350;18.050;2022-07-22T10:22:48;4.60;;;3.20;;
51184;SDS011;37248;59.350;18.050;2022-07-22T10:25:14;4.13;;;2.90;;
51184;SDS011;37248;59.350;18.050;2022-07-22T10:27:47;3.40;;;3.10;;
51184;SDS011;37248;59.350;18.050;2022-07-22T10:30:14;3.60;;;2.97;;
51184;SDS011;37248;59.350;18.050;2022-07-22T10:32:39;5.45;;;3.15;;
51184;SDS011;37248;59.350;18.050;2022-07-22T10:40:13;4.75;;;3.20;;
51184;SDS011;37248;59.350;18.050;2022-07-22T10:45:37;3.58;;;3.00;;
51184;SDS011;37248;59.350;18.050;2022-07-22T10:48:09;3.87;;;3.10;;
51184;SDS011;37248;59.350;18.050;2022-07-22T10:53:01;3.20;;;2.90;;
51184;SDS011;37248;59.350;18.050;2022-07-22T10:55:26;5.00;;;3.50;;
51184;SDS011;37248;59.350;18.050;2022-07-22T10:57:51;3.70;;;3.30;;
51184;SDS011;37248;59.350;18.050;2022-07-22T11:00:16;3.63;;;2.97;;
51184;SDS011;37248;59.350;18.050;2022-07-22T11:02:42;4.40;;;3.30;;
51184;SDS011;37248;59.350;18.050;2022-07-22T11:05:08;4.50;;;3.50;;
51184;SDS011;37248;59.350;18.050;2022-07-22T11:07:33;3.58;;;3.20;;
51184;SDS011;37248;59.350;18.050;2022-07-22T11:10:18;3.38;;;2.80;;
51184;SDS011;37248;59.350;18.050;2022-07-22T11:12:44;3.75;;;3.30;;
51184;SDS011;37248;59.350;18.050;2022-07-22T11:15:10;4.80;;;3.50;;
51184;SDS011;37248;59.350;18.050;2022-07-22T11:17:35;4.57;;;3.60;;
51184;SDS011;37248;59.350;18.050;2022-07-22T11:20:01;3.67;;;3.27;;
51184;SDS011;37248;59.350;18.050;2022-07-22T11:22:27;4.72;;;3.15;;
51184;SDS011;37248;59.350;18.050;2022-07-22T11:24:53;3.67;;;3.30;;
51184;SDS011;37248;59.350;18.050;2022-07-22T11:27:18;5.53;;;3.40;;
51184;SDS011;37248;59.350;18.050;2022-07-22T11:29:47;3.72;;;3.25;;
51184;SDS011;37248;59.350;18.050;2022-07-22T11:32:13;4.05;;;3.22;;
51184;SDS011;37248;59.350;18.050;2022-07-22T11:34:43;4.20;;;3.10;;
51184;SDS011;37248;59.350;18.050;2022-07-22T11:37:11;4.03;;;3.38;;
51184;SDS011;37248;59.350;18.050;2022-07-22T11:39:37;9.50;;;3.47;;
51184;SDS011;37248;59.350;18.050;2022-07-22T11:42:02;4.17;;;3.47;;
51184;SDS011;37248;59.350;18.050;2022-07-22T11:44:29;4.17;;;3.70;;
51184;SDS011;37248;59.350;18.050;2022-07-22T11:46:54;4.65;;;3.90;;
51184;SDS011;37248;59.350;18.050;2022-07-22T11:49:24;3.70;;;3.35;;
51184;SDS011;37248;59.350;18.050;2022-07-22T11:51:50;4.03;;;3.63;;
51184;SDS011;37248;59.350;18.050;2022-07-22T11:54:15;4.13;;;3.70;;
51184;SDS011;37248;59.350;18.050;2022-07-22T11:56:40;4.90;;;3.73;;
51184;SDS011;37248;59.350;18.050;2022-07-22T11:59:06;6.03;;;3.83;;
51184;SDS011;37248;59.350;18.050;2022-07-22T12:01:33;4.22;;;3.47;;
51184;SDS011;37248;59.350;18.050;2022-07-22T12:04:03;6.00;;;4.10;;
51184;SDS011;37248;59.350;18.050;2022-07-22T12:06:29;4.53;;;3.78;;
51184;SDS011;37248;59.350;18.050;2022-07-22T12:09:03;4.03;;;3.63;;
51184;SDS011;37248;59.350;18.050;2022-07-22T12:11:29;4.35;;;3.95;;
51184;SDS011;37248;59.350;18.050;2022-07-22T12:13:54;5.27;;;3.87;;
51184;SDS011;37248;59.350;18.050;2022-07-22T12:16:27;5.00;;;4.10;;
51184;SDS011;37248;59.350;18.050;2022-07-22T12:18:54;4.95;;;4.10;;
51184;SDS011;37248;59.350;18.050;2022-07-22T12:21:20;5.50;;;4.10;;
51184;SDS011;37248;59.350;18.050;2022-07-22T12:24:05;4.35;;;3.92;;
51184;SDS011;37248;59.350;18.050;2022-07-22T12:29:26;4.53;;;3.77;;
51184;SDS011;37248;59.350;18.050;2022-07-22T12:31:56;4.35;;;3.65;;
51184;SDS011;37248;59.350;18.050;2022-07-22T12:34:35;5.50;;;4.00;;
51184;SDS011;37248;59.350;18.050;2022-07-22T12:37:11;4.38;;;3.70;;
51184;SDS011;37248;59.350;18.050;2022-07-22T12:39:36;4.25;;;3.50;;
51184;SDS011;37248;59.350;18.050;2022-07-22T12:42:01;5.63;;;4.10;;
51184;SDS011;37248;59.350;18.050;2022-07-22T12:44:27;4.23;;;3.83;;
51184;SDS011;37248;59.350;18.050;2022-07-22T12:46:53;4.33;;;3.87;;
51184;SDS011;37248;59.350;18.050;2022-07-22T12:49:20;4.38;;;3.65;;
51184;SDS011;37248;59.350;18.050;2022-07-22T12:52:07;4.22;;;3.40;;
51184;SDS011;37248;59.350;18.050;2022-07-22T12:54:33;5.22;;;3.70;;
51184;SDS011;37248;59.350;18.050;2022-07-22T12:56:59;4.50;;;3.95;;
51184;SDS011;37248;59.350;18.050;2022-07-22T12:59:24;4.17;;;3.70;;
51184;SDS011;37248;59.350;18.050;2022-07-22T13:01:50;4.57;;;3.83;;
51184;SDS011;37248;59.350;18.050;2022-07-22T13:04:15;4.70;;;3.67;;
51184;SDS011;37248;59.350;18.050;2022-07-22T13:06:40;4.90;;;4.07;;
51184;SDS011;37248;59.350;18.050;2022-07-22T13:09:06;5.30;;;3.93;;
51184;SDS011;37248;59.350;18.050;2022-07-22T13:11:31;4.10;;;3.70;;
51184;SDS011;37248;59.350;18.050;2022-07-22T13:13:56;4.30;;;3.80;;
51184;SDS011;37248;59.350;18.050;2022-07-22T13:16:21;4.13;;;3.73;;
51184;SDS011;37248;59.350;18.050;2022-07-22T13:18:47;4.23;;;3.73;;
51184;SDS011;37248;59.350;18.050;2022-07-22T13:21:14;5.00;;;4.10;;
51184;SDS011;37248;59.350;18.050;2022-07-22T13:23:39;4.87;;;3.70;;
51184;SDS011;37248;59.350;18.050;2022-07-22T13:26:05;4.30;;;3.70;;
51184;SDS011;37248;59.350;18.050;2022-07-22T13:28:30;4.67;;;3.77;;
51184;SDS011;37248;59.350;18.050;2022-07-22T13:30:55;5.30;;;4.18;;
51184;SDS011;37248;59.350;18.050;2022-07-22T13:33:21;4.30;;;3.70;;
51184;SDS011;37248;59.350;18.050;2022-07-22T13:35:46;5.72;;;3.90;;
51184;SDS011;37248;59.350;18.050;2022-07-22T13:38:11;5.30;;;4.07;;
51184;SDS011;37248;59.350;18.050;2022-07-22T13:40:36;5.07;;;4.00;;
51184;SDS011;37248;59.350;18.050;2022-07-22T13:43:02;4.33;;;3.90;;
51184;SDS011;37248;59.350;18.050;2022-07-22T13:45:27;4.90;;;4.20;;
51184;SDS011;37248;59.350;18.050;2022-07-22T13:47:52;4.70;;;3.80;;
51184;SDS011;37248;59.350;18.050;2022-07-22T13:50:17;5.80;;;3.93;;
51184;SDS011;37248;59.350;18.050;2022-07-22T13:52:43;4.47;;;4.07;;
51184;SDS011;37248;59.350;18.050;2022-07-22T13:55:11;4.13;;;3.72;;
51184;SDS011;37248;59.350;18.050;2022-07-22T13:57:36;4.78;;;4.22;;
51184;SDS011;37248;59.350;18.050;2022-07-22T14:00:03;4.87;;;3.93;;
51184;SDS011;37248;59.350;18.050;2022-07-22T14:02:28;4.90;;;4.10;;
51184;SDS011;37248;59.350;18.050;2022-07-22T14:04:54;4.45;;;4.05;;
51184;SDS011;37248;59.350;18.050;2022-07-22T14:07:19;4.60;;;4.10;;
51184;SDS011;37248;59.350;18.050;2022-07-22T14:09:44;5.10;;;3.92;;
51184;SDS011;37248;59.350;18.050;2022-07-22T14:12:09;5.10;;;4.30;;
51184;SDS011;37248;59.350;18.050;2022-07-22T14:14:35;4.53;;;4.00;;
51184;SDS011;37248;59.350;18.050;2022-07-22T14:17:00;6.10;;;4.33;;
51184;SDS011;37248;59.350;18.050;2022-07-22T14:19:25;6.47;;;4.87;;
51184;SDS011;37248;59.350;18.050;2022-07-22T14:21:50;4.77;;;4.27;;
51184;SDS011;37248;59.350;18.050;2022-07-22T14:24:16;4.93;;;4.33;;
51184;SDS011;37248;59.350;18.050;2022-07-22T14:26:41;5.33;;;4.50;;
51184;SDS011;37248;59.350;18.050;2022-07-22T14:29:07;5.40;;;4.00;;
51184;SDS011;37248;59.350;18.050;2022-07-22T14:31:33;4.67;;;4.23;;
51184;SDS011;37248;59.350;18.050;2022-07-22T14:33:58;5.10;;;4.43;;
51184;SDS011;37248;59.350;18.050;2022-07-22T14:36:23;4.20;;;3.80;;
51184;SDS011;37248;59.350;18.050;2022-07-22T14:38:50;5.10;;;4.05;;
51184;SDS011;37248;59.350;18.050;2022-07-22T14:41:15;4.67;;;4.17;;